NORTHEAST SUFFOLK  -  Frost Advisory Frost Advisory        NORTHWEST SUFFOLK  -  Frost Advisory Frost Advisory        SOUTHEAST SUFFOLK  -  Frost Advisory Frost Advisory        SOUTHWEST SUFFOLK  -  Frost Advisory Frost Advisory      

Active alerts

Northwest Suffolk
  Details for Northwest Suffolk Frost Advisory
Southwest Suffolk
  Details for Southwest Suffolk Frost Advisory
Northeast Suffolk
  Details for Northeast Suffolk Frost Advisory
Southeast Suffolk
  Details for Southeast Suffolk Frost Advisory


WXM80 ListenWXM80 Stop

You find our weather info also at:

UK Metoffice

WeatherCloud

Weather Underground

Northeastern Weather Network

AWEKAS

Citizen Weather Observer Program (CWOP)

HAMweather, WeatherForYou, PWS Weather


Weather Underground History page Text

Daily Summary for December 8, 2016 Units:  English    Metric   Both
« Previous Day
Next Day »
Daily Weekly Monthly Yearly Custom
  High: Low: Average:
Temperature: 45.2 °F 34.7 °F 39.5 °F
Dew Point: 36.3 °F 22.7 °F 30.5 °F
Humidity: 95 % 52 % 72 %
Wind Speed: 9.5 mph 0.0 mph 3.5 mph
Wind Gust: 21.0 mph - -
Wind:- - WSW
Pressure: 29.98 in 29.84 in -
Precipitation: 0.00 in    
Historical Graphs
 
 
Tabular Data for December 8, 2016
Time Temperature Dew Point Pressure Wind Wind Speed Wind Gust Humidity Rainfall Rate (Hourly)
00:01 38.2 °F 35.8 °F 29.98 in Calm     91 % 0.00 in
00:06 38.1 °F 35.7 °F 29.98 in Calm     91 % 0.00 in
00:11 38.0 °F 35.6 °F 29.98 in Calm     91 % 0.00 in
00:16 38.0 °F 35.6 °F 29.98 in Calm     91 % 0.00 in
00:21 37.9 °F 35.5 °F 29.98 in Calm     91 % 0.00 in
00:26 37.9 °F 35.5 °F 29.97 in WNW 0.1 mph 1.2 mph 91 % 0.00 in
00:31 37.8 °F 35.4 °F 29.97 in WNW 0.2 mph 1.2 mph 91 % 0.00 in
00:36 37.7 °F 35.3 °F 29.97 in Calm     91 % 0.00 in
00:47 37.5 °F 35.1 °F 29.97 in Calm   1.2 mph 91 % 0.00 in
00:52 37.3 °F 34.9 °F 29.97 in WNW 0.3 mph 1.2 mph 91 % 0.00 in
00:57 37.1 °F 34.7 °F 29.97 in WNW 0.2 mph 2.3 mph 91 % 0.00 in
01:02 37.0 °F 34.6 °F 29.96 in Calm     91 % 0.00 in
01:07 36.9 °F 34.5 °F 29.97 in WNW 0.2 mph 1.2 mph 91 % 0.00 in
01:12 36.8 °F 34.4 °F 29.97 in Calm     91 % 0.00 in
01:17 36.6 °F 34.5 °F 29.97 in Calm     92 % 0.00 in
01:22 36.5 °F 34.1 °F 29.96 in WNW 0.6 mph 1.2 mph 91 % 0.00 in
01:27 36.4 °F 34.3 °F 29.96 in Calm   1.2 mph 92 % 0.00 in
01:33 36.3 °F 34.2 °F 29.96 in Calm   1.2 mph 92 % 0.00 in
01:38 36.2 °F 34.1 °F 29.96 in Calm     92 % 0.00 in
01:43 36.1 °F 34.0 °F 29.96 in WNW 0.4 mph 1.2 mph 92 % 0.00 in
01:48 36.0 °F 33.9 °F 29.96 in Calm   1.2 mph 92 % 0.00 in
01:53 35.9 °F 33.8 °F 29.95 in WNW 0.5 mph 2.3 mph 92 % 0.00 in
01:58 35.8 °F 33.7 °F 29.96 in WNW 0.7 mph 1.2 mph 92 % 0.00 in
02:03 35.7 °F 33.6 °F 29.96 in WNW 0.2 mph 1.0 mph 92 % 0.00 in
02:08 35.6 °F 33.5 °F 29.96 in WNW 0.6 mph 1.2 mph 92 % 0.00 in
02:13 35.5 °F 33.4 °F 29.96 in WNW 0.8 mph 2.3 mph 92 % 0.00 in
02:18 35.3 °F 33.2 °F 29.96 in WNW 0.2 mph 1.2 mph 92 % 0.00 in
02:23 35.3 °F 33.5 °F 29.96 in WNW 0.7 mph 2.3 mph 93 % 0.00 in
02:29 35.2 °F 33.4 °F 29.96 in Calm   1.2 mph 93 % 0.00 in
02:34 35.2 °F 33.4 °F 29.96 in Calm   1.2 mph 93 % 0.00 in
02:39 35.1 °F 33.3 °F 29.96 in Calm   1.2 mph 93 % 0.00 in
02:44 35.0 °F 33.2 °F 29.96 in WNW 0.6 mph 2.0 mph 93 % 0.00 in
02:49 35.0 °F 33.2 °F 29.96 in WNW 0.4 mph 2.0 mph 93 % 0.00 in
02:54 34.9 °F 33.1 °F 29.96 in Calm     93 % 0.00 in
02:59 34.8 °F 33.0 °F 29.96 in WNW 0.3 mph 2.3 mph 93 % 0.00 in
03:04 34.8 °F 33.2 °F 29.97 in WNW 0.1 mph 1.2 mph 94 % 0.00 in
03:09 34.8 °F 33.2 °F 29.96 in WNW 0.4 mph 1.2 mph 94 % 0.00 in
03:14 34.7 °F 32.9 °F 29.96 in WNW 0.6 mph 1.2 mph 93 % 0.00 in
03:20 34.7 °F 32.9 °F 29.96 in WNW 1.2 mph 2.3 mph 93 % 0.00 in
03:25 34.7 °F 33.2 °F 29.96 in WNW 1.0 mph 2.0 mph 94 % 0.00 in
03:30 34.8 °F 33.2 °F 29.96 in WNW 1.0 mph 2.0 mph 94 % 0.00 in
03:35 34.8 °F 33.2 °F 29.96 in WNW 2.0 mph 2.0 mph 94 % 0.00 in
03:40 34.8 °F 33.2 °F 29.96 in WNW 1.0 mph 2.0 mph 94 % 0.00 in
03:45 34.9 °F 33.3 °F 29.95 in WNW 1.0 mph 3.0 mph 94 % 0.00 in
03:50 34.9 °F 33.3 °F 29.95 in WNW 0.9 mph 2.3 mph 94 % 0.00 in
03:55 35.0 °F 33.4 °F 29.95 in West 2.0 mph 4.0 mph 94 % 0.00 in
04:00 35.1 °F 33.5 °F 29.95 in SW 1.1 mph 2.3 mph 94 % 0.00 in
04:05 35.3 °F 34.0 °F 29.95 in SW 1.6 mph 3.5 mph 95 % 0.00 in
04:10 35.5 °F 34.2 °F 29.95 in SW 1.7 mph 3.5 mph 95 % 0.00 in
04:16 35.6 °F 34.3 °F 29.95 in SW 1.5 mph 4.0 mph 95 % 0.00 in
04:21 35.8 °F 34.5 °F 29.95 in SW 2.1 mph 3.5 mph 95 % 0.00 in
04:26 35.9 °F 34.6 °F 29.95 in SW 1.9 mph 2.3 mph 95 % 0.00 in
04:31 36.0 °F 34.7 °F 29.95 in SW 2.2 mph 3.5 mph 95 % 0.00 in
04:36 36.1 °F 34.8 °F 29.95 in SW 2.2 mph 3.5 mph 95 % 0.00 in
04:41 36.2 °F 34.9 °F 29.94 in SW 1.7 mph 3.5 mph 95 % 0.00 in
04:47 36.2 °F 34.9 °F 29.94 in SW 2.2 mph 3.5 mph 95 % 0.00 in
04:52 36.3 °F 35.0 °F 29.94 in SW 2.6 mph 3.5 mph 95 % 0.00 in
04:57 36.3 °F 35.0 °F 29.94 in SW 0.6 mph 3.5 mph 95 % 0.00 in
05:02 36.4 °F 35.1 °F 29.94 in SW 0.6 mph 2.3 mph 95 % 0.00 in
05:07 36.5 °F 35.2 °F 29.94 in WSW 1.9 mph 3.5 mph 95 % 0.00 in
05:12 36.5 °F 34.9 °F 29.94 in WSW 1.3 mph 3.0 mph 94 % 0.00 in
05:17 36.5 °F 34.9 °F 29.94 in WSW 1.1 mph 3.5 mph 94 % 0.00 in
05:22 36.6 °F 35.0 °F 29.94 in WSW 0.9 mph 3.5 mph 94 % 0.00 in
05:27 36.6 °F 35.0 °F 29.94 in WSW 0.8 mph 2.3 mph 94 % 0.00 in
05:32 36.6 °F 34.8 °F 29.93 in WSW 1.7 mph 3.5 mph 93 % 0.00 in
05:38 36.6 °F 34.8 °F 29.93 in WSW 1.8 mph 3.5 mph 93 % 0.00 in
05:43 36.7 °F 34.9 °F 29.94 in SW 1.2 mph 3.5 mph 93 % 0.00 in
05:48 36.7 °F 34.6 °F 29.94 in SW 2.4 mph 3.5 mph 92 % 0.00 in
05:53 36.6 °F 34.5 °F 29.94 in SW 1.2 mph 3.5 mph 92 % 0.00 in
05:58 36.6 °F 34.5 °F 29.93 in SW 1.8 mph 3.5 mph 92 % 0.00 in
06:03 36.6 °F 34.5 °F 29.94 in SW 1.7 mph 3.5 mph 92 % 0.00 in
06:08 36.6 °F 34.2 °F 29.94 in SSW 1.6 mph 3.5 mph 91 % 0.00 in
06:13 36.6 °F 34.2 °F 29.94 in SW 2.0 mph 3.5 mph 91 % 0.00 in
06:18 36.5 °F 34.1 °F 29.94 in WSW 3.0 mph 3.5 mph 91 % 0.00 in
06:23 36.5 °F 34.1 °F 29.94 in SW 2.4 mph 3.5 mph 91 % 0.00 in
06:24 36.5 °F 34.1 °F 29.94 in SW 2.5 mph 3.5 mph 91 % 0.00 in
06:29 36.5 °F 34.1 °F 29.94 in SW 2.0 mph 3.5 mph 91 % 0.00 in
06:34 36.5 °F 34.1 °F 29.94 in SW 1.1 mph 2.3 mph 91 % 0.00 in
06:39 36.5 °F 33.8 °F 29.94 in SW 2.1 mph 3.5 mph 90 % 0.00 in
06:44 36.6 °F 33.9 °F 29.94 in SW 1.1 mph 3.5 mph 90 % 0.00 in
06:49 36.6 °F 33.9 °F 29.94 in SW 2.1 mph 3.5 mph 90 % 0.00 in
06:54 36.6 °F 33.9 °F 29.94 in SW 1.8 mph 3.5 mph 90 % 0.00 in
06:59 36.6 °F 33.9 °F 29.94 in SW 2.5 mph 3.5 mph 90 % 0.00 in
07:04 36.6 °F 33.9 °F 29.94 in WSW 3.3 mph 3.5 mph 90 % 0.00 in
07:10 36.6 °F 33.9 °F 29.94 in SSW 2.5 mph 3.5 mph 90 % 0.00 in
07:15 36.6 °F 34.0 °F 29.94 in SSW 2.0 mph 6.0 mph 90 % 0.00 in
07:20 36.7 °F 34.0 °F 29.95 in SSW 2.0 mph 3.0 mph 90 % 0.00 in
07:25 36.8 °F 34.1 °F 29.95 in SSW 2.0 mph 4.0 mph 90 % 0.00 in
07:30 36.8 °F 34.1 °F 29.95 in SW 2.0 mph 4.0 mph 90 % 0.00 in
07:35 36.9 °F 34.2 °F 29.95 in SW 2.0 mph 4.0 mph 90 % 0.00 in
07:40 37.0 °F 34.3 °F 29.94 in SW 2.0 mph 4.0 mph 90 % 0.00 in
07:45 37.1 °F 34.4 °F 29.94 in SSW 2.0 mph 3.0 mph 90 % 0.00 in
07:50 37.3 °F 34.4 °F 29.94 in SSW 2.0 mph 3.0 mph 89 % 0.00 in
07:55 37.4 °F 34.5 °F 29.94 in SSW 1.0 mph 3.0 mph 89 % 0.00 in
08:00 37.5 °F 34.6 °F 29.93 in SSW 0.6 mph 2.3 mph 89 % 0.00 in
08:05 37.6 °F 34.9 °F 29.94 in SSW 0.8 mph 3.5 mph 90 % 0.00 in
08:10 37.8 °F 35.1 °F 29.93 in SSW 1.4 mph 2.3 mph 90 % 0.00 in
08:15 37.9 °F 34.9 °F 29.94 in SW 1.0 mph 2.3 mph 89 % 0.00 in
08:20 38.1 °F 35.1 °F 29.94 in SW 2.4 mph 4.6 mph 89 % 0.00 in
08:25 38.3 °F 35.3 °F 29.94 in SSW 1.9 mph 3.0 mph 89 % 0.00 in
08:30 38.5 °F 35.5 °F 29.94 in SSW 1.8 mph 3.5 mph 89 % 0.00 in
08:35 38.7 °F 35.7 °F 29.94 in SSW 1.8 mph 3.5 mph 89 % 0.00 in
08:40 38.9 °F 35.6 °F 29.94 in SSW 2.1 mph 2.3 mph 88 % 0.00 in
08:46 39.0 °F 35.7 °F 29.94 in SSW 0.9 mph 2.3 mph 88 % 0.00 in
08:51 39.2 °F 35.9 °F 29.94 in SW 2.3 mph 4.6 mph 88 % 0.00 in
08:56 39.4 °F 35.9 °F 29.94 in WSW 0.8 mph 3.5 mph 87 % 0.00 in
09:01 39.6 °F 36.0 °F 29.93 in Calm   3.5 mph 87 % 0.00 in
09:06 39.8 °F 36.0 °F 29.94 in West 1.0 mph 2.3 mph 86 % 0.00 in
09:11 40.0 °F 36.2 °F 29.94 in SW 1.4 mph 3.5 mph 86 % 0.00 in
09:16 40.2 °F 36.3 °F 29.94 in SSW 0.8 mph 2.3 mph 86 % 0.00 in
09:21 40.5 °F 36.3 °F 29.94 in WSW 3.0 mph 8.1 mph 85 % 0.00 in
09:26 40.7 °F 35.9 °F 29.93 in SW 3.3 mph 5.0 mph 83 % 0.00 in
09:31 40.9 °F 35.8 °F 29.93 in SW 1.6 mph 2.3 mph 82 % 0.00 in
09:37 41.1 °F 36.0 °F 29.93 in Calm     82 % 0.00 in
09:42 41.3 °F 35.6 °F 29.93 in WNW 1.8 mph 3.5 mph 80 % 0.00 in
09:52 41.7 °F 35.3 °F 29.93 in West 2.1 mph 3.5 mph 78 % 0.00 in
09:57 41.9 °F 35.2 °F 29.93 in WSW 2.6 mph 3.5 mph 77 % 0.00 in
10:02 42.1 °F 35.7 °F 29.93 in WSW 2.0 mph 3.5 mph 78 % 0.00 in
10:07 42.3 °F 35.6 °F 29.93 in SW 1.4 mph 4.6 mph 77 % 0.00 in
10:12 42.5 °F 35.5 °F 29.92 in SSW 0.2 mph 3.5 mph 76 % 0.00 in
10:17 42.6 °F 35.2 °F 29.92 in SW 0.1 mph 2.3 mph 75 % 0.00 in
10:22 42.8 °F 35.1 °F 29.92 in West 2.9 mph 4.6 mph 74 % 0.00 in
10:28 43.0 °F 34.9 °F 29.91 in West 3.5 mph 7.0 mph 73 % 0.00 in
10:33 43.1 °F 34.7 °F 29.92 in West 4.4 mph 7.0 mph 72 % 0.00 in
10:38 43.3 °F 34.9 °F 29.91 in West 0.9 mph 4.6 mph 72 % 0.00 in
10:43 43.4 °F 34.6 °F 29.91 in SW 2.1 mph 7.0 mph 71 % 0.00 in
10:48 43.5 °F 34.4 °F 29.91 in West 3.0 mph 4.0 mph 70 % 0.00 in
10:53 43.6 °F 34.8 °F 29.90 in West 3.2 mph 5.8 mph 71 % 0.00 in
10:58 43.7 °F 34.2 °F 29.90 in West 1.4 mph 8.1 mph 69 % 0.00 in
11:03 43.7 °F 34.2 °F 29.90 in South 4.8 mph 8.1 mph 69 % 0.00 in
11:08 43.8 °F 34.6 °F 29.90 in SW 3.1 mph 3.5 mph 70 % 0.00 in
11:13 43.9 °F 34.7 °F 29.89 in WSW 3.3 mph 6.0 mph 70 % 0.00 in
11:19 44.0 °F 33.7 °F 29.89 in West 3.7 mph 9.2 mph 67 % 0.00 in
11:24 44.1 °F 33.1 °F 29.89 in West 4.6 mph 9.2 mph 65 % 0.00 in
11:29 44.1 °F 33.5 °F 29.88 in WSW 2.9 mph 6.9 mph 66 % 0.00 in
11:34 44.2 °F 33.2 °F 29.89 in WSW 3.3 mph 8.0 mph 65 % 0.00 in
11:39 44.3 °F 33.7 °F 29.88 in WSW 3.5 mph 7.0 mph 66 % 0.00 in
11:44 44.4 °F 33.0 °F 29.87 in West 2.9 mph 8.1 mph 64 % 0.00 in
11:49 44.5 °F 33.1 °F 29.87 in WSW 3.9 mph 5.8 mph 64 % 0.00 in
11:54 44.6 °F 32.8 °F 29.87 in West 7.0 mph 11.5 mph 63 % 0.00 in
11:59 44.6 °F 32.0 °F 29.87 in WSW 6.0 mph 9.2 mph 61 % 0.00 in
12:04 44.6 °F 32.4 °F 29.87 in West 4.7 mph 7.0 mph 62 % 0.00 in
12:10 44.6 °F 32.4 °F 29.86 in West 5.0 mph 12.0 mph 62 % 0.00 in
12:15 44.7 °F 32.0 °F 29.86 in WSW 5.0 mph 12.0 mph 61 % 0.00 in
12:20 44.7 °F 32.5 °F 29.86 in WSW 2.0 mph 7.0 mph 62 % 0.00 in
12:25 44.9 °F 31.8 °F 29.86 in WNW 3.8 mph 9.2 mph 60 % 0.00 in
12:30 44.9 °F 31.0 °F 29.85 in SW 8.0 mph 12.0 mph 58 % 0.00 in
12:35 44.9 °F 30.6 °F 29.85 in WSW 3.0 mph 9.0 mph 57 % 0.00 in
12:40 45.0 °F 31.1 °F 29.85 in WSW 5.0 mph 8.0 mph 58 % 0.00 in
12:45 45.1 °F 31.2 °F 29.84 in WSW 2.0 mph 8.0 mph 58 % 0.00 in
12:50 45.2 °F 31.3 °F 29.84 in WSW 6.0 mph 9.0 mph 58 % 0.00 in
12:55 45.2 °F 30.4 °F 29.84 in SW 7.2 mph 12.7 mph 56 % 0.00 in
13:00 45.2 °F 30.4 °F 29.84 in SSW 2.9 mph 7.0 mph 56 % 0.00 in
13:05 45.1 °F 30.8 °F 29.84 in WSW 3.1 mph 10.4 mph 57 % 0.00 in
13:10 45.1 °F 30.3 °F 29.84 in WSW 2.7 mph 10.4 mph 56 % 0.00 in
13:15 45.0 °F 30.7 °F 29.84 in NW 0.7 mph 3.5 mph 57 % 0.00 in
13:20 44.9 °F 30.6 °F 29.84 in WSW 5.1 mph 10.4 mph 57 % 0.00 in
13:25 44.7 °F 30.0 °F 29.84 in West 7.0 mph 12.7 mph 56 % 0.00 in
13:30 44.6 °F 30.3 °F 29.84 in WSW 5.2 mph 11.0 mph 57 % 0.00 in
13:35 44.4 °F 30.1 °F 29.84 in WSW 7.7 mph 11.5 mph 57 % 0.00 in
13:40 44.3 °F 30.0 °F 29.84 in West 4.0 mph 11.5 mph 57 % 0.00 in
13:45 44.3 °F 30.0 °F 29.84 in WNW 4.1 mph 8.0 mph 57 % 0.00 in
13:51 44.2 °F 29.9 °F 29.84 in WNW 7.1 mph 15.0 mph 57 % 0.00 in
13:56 44.0 °F 29.7 °F 29.84 in SW 5.3 mph 11.5 mph 57 % 0.00 in
14:01 43.9 °F 29.6 °F 29.84 in West 3.9 mph 13.8 mph 57 % 0.00 in
14:06 43.8 °F 30.0 °F 29.84 in WSW 6.4 mph 12.7 mph 58 % 0.00 in
14:11 43.7 °F 28.6 °F 29.84 in West 4.6 mph 8.1 mph 55 % 0.00 in
14:16 43.6 °F 28.9 °F 29.84 in WNW 8.7 mph 12.0 mph 56 % 0.00 in
14:21 43.5 °F 28.8 °F 29.84 in WSW 5.2 mph 8.1 mph 56 % 0.00 in
14:26 43.4 °F 28.3 °F 29.84 in West 7.6 mph 9.2 mph 55 % 0.00 in
14:31 43.3 °F 27.8 °F 29.84 in West 5.4 mph 8.1 mph 54 % 0.00 in
14:36 43.2 °F 27.7 °F 29.85 in West 5.0 mph 11.0 mph 54 % 0.00 in
14:42 43.2 °F 27.7 °F 29.85 in West 5.1 mph 11.5 mph 54 % 0.00 in
14:47 43.1 °F 28.0 °F 29.85 in West 7.1 mph 10.4 mph 55 % 0.00 in
14:52 43.1 °F 28.0 °F 29.85 in West 5.5 mph 12.7 mph 55 % 0.00 in
14:57 42.9 °F 27.8 °F 29.85 in West 4.6 mph 11.5 mph 55 % 0.00 in
15:02 42.8 °F 26.8 °F 29.85 in WNW 7.0 mph 11.5 mph 53 % 0.00 in
15:07 42.7 °F 26.7 °F 29.85 in West 8.6 mph 13.0 mph 53 % 0.00 in
15:12 42.6 °F 26.2 °F 29.85 in West 5.8 mph 13.8 mph 52 % 0.00 in
15:17 42.6 °F 27.1 °F 29.85 in West 7.3 mph 11.5 mph 54 % 0.00 in
15:22 42.5 °F 27.0 °F 29.85 in WSW 7.4 mph 15.0 mph 54 % 0.00 in
15:27 42.5 °F 27.0 °F 29.85 in West 5.7 mph 6.9 mph 54 % 0.00 in
15:33 42.4 °F 26.9 °F 29.85 in WNW 4.6 mph 15.0 mph 54 % 0.00 in
15:38 42.3 °F 27.7 °F 29.85 in WSW 4.5 mph 8.1 mph 56 % 0.00 in
15:43 42.2 °F 27.6 °F 29.86 in SW 7.1 mph 10.4 mph 56 % 0.00 in
15:48 42.1 °F 27.1 °F 29.86 in WNW 5.3 mph 10.4 mph 55 % 0.00 in
15:53 42.0 °F 27.0 °F 29.85 in WSW 5.1 mph 8.1 mph 55 % 0.00 in
15:58 42.0 °F 27.4 °F 29.85 in WSW 5.7 mph 12.0 mph 56 % 0.00 in
16:03 41.8 °F 26.8 °F 29.85 in WSW 6.7 mph 14.0 mph 55 % 0.00 in
16:08 41.7 °F 26.3 °F 29.86 in WSW 5.6 mph 11.5 mph 54 % 0.00 in
16:13 41.7 °F 26.7 °F 29.86 in West 6.1 mph 11.5 mph 55 % 0.00 in
16:18 41.6 °F 26.6 °F 29.86 in WSW 5.9 mph 8.1 mph 55 % 0.00 in
16:24 41.6 °F 26.6 °F 29.86 in WSW 3.6 mph 8.1 mph 55 % 0.00 in
16:29 41.5 °F 27.0 °F 29.86 in WSW 4.5 mph 12.0 mph 56 % 0.00 in
16:34 41.4 °F 26.9 °F 29.86 in WSW 5.8 mph 9.2 mph 56 % 0.00 in
16:39 41.3 °F 27.2 °F 29.86 in West 6.0 mph 9.2 mph 57 % 0.00 in
16:44 41.3 °F 27.6 °F 29.86 in West 3.0 mph 6.9 mph 58 % 0.00 in
16:49 41.3 °F 27.2 °F 29.87 in WSW 4.7 mph 8.1 mph 57 % 0.00 in
16:54 41.1 °F 27.0 °F 29.87 in SW 5.7 mph 6.9 mph 57 % 0.00 in
16:59 41.1 °F 27.4 °F 29.87 in West 6.0 mph 12.0 mph 58 % 0.00 in
17:04 41.0 °F 26.9 °F 29.87 in WSW 5.3 mph 11.5 mph 57 % 0.00 in
17:09 41.0 °F 27.3 °F 29.87 in West 4.2 mph 7.0 mph 58 % 0.00 in
17:15 41.0 °F 27.3 °F 29.87 in WSW 6.7 mph 11.0 mph 58 % 0.00 in
17:20 41.0 °F 27.7 °F 29.88 in WSW 5.0 mph 12.0 mph 59 % 0.00 in
17:25 40.9 °F 26.8 °F 29.87 in WSW 5.0 mph 14.0 mph 57 % 0.00 in
17:30 40.9 °F 27.2 °F 29.88 in West 4.4 mph 9.2 mph 58 % 0.00 in
17:35 40.9 °F 27.2 °F 29.88 in West 3.0 mph 9.0 mph 58 % 0.00 in
17:40 40.9 °F 27.2 °F 29.88 in West 3.0 mph 8.0 mph 58 % 0.00 in
17:45 40.9 °F 26.8 °F 29.88 in WNW 3.1 mph 8.1 mph 57 % 0.00 in
17:50 40.9 °F 26.8 °F 29.88 in West 5.0 mph 9.0 mph 57 % 0.00 in
17:55 40.9 °F 26.8 °F 29.88 in West 2.0 mph 10.0 mph 57 % 0.00 in
18:00 41.0 °F 26.9 °F 29.89 in West 3.5 mph 6.9 mph 57 % 0.00 in
18:05 41.0 °F 27.3 °F 29.89 in West 5.0 mph 12.0 mph 58 % 0.00 in
18:10 41.0 °F 26.9 °F 29.89 in WNW 2.0 mph 9.0 mph 57 % 0.00 in
18:15 41.0 °F 27.3 °F 29.89 in WNW 4.3 mph 6.9 mph 58 % 0.00 in
18:20 41.1 °F 26.5 °F 29.89 in West 3.0 mph 12.0 mph 56 % 0.00 in
18:25 41.0 °F 26.1 °F 29.89 in WNW 5.0 mph 12.0 mph 55 % 0.00 in
18:30 40.9 °F 26.4 °F 29.89 in WNW 2.0 mph 12.0 mph 56 % 0.00 in
18:35 40.9 °F 26.0 °F 29.90 in WNW 3.0 mph 10.0 mph 55 % 0.00 in
18:40 40.9 °F 26.0 °F 29.90 in WNW 6.0 mph 13.0 mph 55 % 0.00 in
18:45 40.9 °F 26.0 °F 29.90 in WSW 8.5 mph 11.5 mph 55 % 0.00 in
18:50 40.9 °F 25.5 °F 29.90 in West 7.0 mph 12.0 mph 54 % 0.00 in
18:55 41.0 °F 25.6 °F 29.90 in West 7.0 mph 14.0 mph 54 % 0.00 in
19:00 41.0 °F 25.6 °F 29.90 in WSW 5.2 mph 7.0 mph 54 % 0.00 in
19:05 41.0 °F 26.5 °F 29.90 in West 6.0 mph 12.0 mph 56 % 0.00 in
19:10 41.0 °F 26.5 °F 29.90 in West 5.0 mph 8.1 mph 56 % 0.00 in
19:15 40.9 °F 26.4 °F 29.90 in SW 3.3 mph 6.9 mph 56 % 0.00 in
19:20 40.8 °F 26.3 °F 29.90 in WNW 5.3 mph 11.5 mph 56 % 0.00 in
19:25 40.7 °F 26.2 °F 29.90 in WSW 7.9 mph 12.7 mph 56 % 0.00 in
19:30 40.6 °F 25.7 °F 29.90 in West 3.5 mph 14.0 mph 55 % 0.00 in
19:35 40.6 °F 25.2 °F 29.90 in West 7.2 mph 21.0 mph 54 % 0.00 in
19:40 40.5 °F 25.1 °F 29.90 in West 8.5 mph 19.6 mph 54 % 0.00 in
19:45 40.4 °F 25.1 °F 29.91 in WNW 2.5 mph 9.2 mph 54 % 0.00 in
19:50 40.4 °F 25.5 °F 29.90 in WSW 7.6 mph 9.2 mph 55 % 0.00 in
19:56 40.3 °F 25.4 °F 29.90 in SW 9.0 mph 17.3 mph 55 % 0.00 in
20:00 40.2 °F 25.7 °F 29.91 in West 4.7 mph 11.5 mph 56 % 0.00 in
20:06 40.2 °F 24.9 °F 29.91 in West 6.3 mph 11.5 mph 54 % 0.00 in
20:11 40.0 °F 25.1 °F 29.91 in SW 7.2 mph 17.3 mph 55 % 0.00 in
20:16 39.9 °F 25.0 °F 29.91 in WNW 3.6 mph 8.1 mph 55 % 0.00 in
20:21 39.8 °F 24.9 °F 29.91 in WNW 4.0 mph 9.2 mph 55 % 0.00 in
20:26 39.7 °F 24.8 °F 29.91 in NNW 7.0 mph 9.2 mph 55 % 0.00 in
20:31 39.6 °F 24.7 °F 29.91 in SW 9.5 mph 16.1 mph 55 % 0.00 in
20:36 39.5 °F 24.2 °F 29.91 in WSW 9.0 mph 17.0 mph 54 % 0.00 in
20:41 39.4 °F 25.0 °F 29.91 in WNW 5.2 mph 11.5 mph 56 % 0.00 in
20:46 39.4 °F 25.4 °F 29.91 in NW 7.9 mph 10.4 mph 57 % 0.00 in
20:51 39.3 °F 25.7 °F 29.91 in WNW 5.9 mph 9.2 mph 58 % 0.00 in
20:57 39.1 °F 24.7 °F 29.91 in West 4.9 mph 10.4 mph 56 % 0.00 in
21:02 39.0 °F 24.6 °F 29.92 in NW 4.0 mph 8.0 mph 56 % 0.00 in
21:07 38.9 °F 24.5 °F 29.92 in WNW 7.9 mph 13.8 mph 56 % 0.00 in
21:12 38.8 °F 24.9 °F 29.92 in WNW 6.2 mph 13.0 mph 57 % 0.00 in
21:17 38.7 °F 24.8 °F 29.92 in West 5.1 mph 9.2 mph 57 % 0.00 in
21:22 38.6 °F 24.7 °F 29.92 in WSW 5.1 mph 11.5 mph 57 % 0.00 in
21:27 38.5 °F 23.7 °F 29.92 in NW 5.9 mph 11.5 mph 55 % 0.00 in
21:32 38.5 °F 24.6 °F 29.92 in NW 5.5 mph 11.5 mph 57 % 0.00 in
21:37 38.4 °F 22.7 °F 29.92 in WNW 9.1 mph 16.1 mph 53 % 0.00 in
21:42 38.4 °F 24.1 °F 29.92 in NW 4.4 mph 10.0 mph 56 % 0.00 in
21:48 38.4 °F 24.1 °F 29.92 in West 5.8 mph 15.0 mph 56 % 0.00 in
21:53 38.3 °F 23.5 °F 29.92 in NW 5.7 mph 11.5 mph 55 % 0.00 in
21:58 38.1 °F 23.3 °F 29.93 in WNW 4.9 mph 15.0 mph 55 % 0.00 in
22:03 38.1 °F 23.8 °F 29.93 in WNW 5.5 mph 14.0 mph 56 % 0.00 in
22:08 38.0 °F 23.7 °F 29.93 in WSW 6.3 mph 12.7 mph 56 % 0.00 in
22:13 37.9 °F 23.2 °F 29.93 in NNW 5.6 mph 11.5 mph 55 % 0.00 in
22:18 37.9 °F 24.0 °F 29.93 in SW 5.0 mph 5.0 mph 57 % 0.00 in
22:23 37.8 °F 23.5 °F 29.93 in West 6.9 mph 16.1 mph 56 % 0.00 in
22:28 37.7 °F 23.8 °F 29.93 in SW 3.6 mph 12.7 mph 57 % 0.00 in
22:33 37.6 °F 23.7 °F 29.93 in WSW 5.5 mph 14.0 mph 57 % 0.00 in
22:39 37.5 °F 23.6 °F 29.93 in WNW 5.1 mph 9.2 mph 57 % 0.00 in
22:44 37.4 °F 24.0 °F 29.93 in SW 8.2 mph 11.5 mph 58 % 0.00 in
22:49 37.3 °F 23.4 °F 29.93 in West 6.4 mph 13.8 mph 57 % 0.00 in
22:54 37.3 °F 23.9 °F 29.93 in West 3.0 mph 6.9 mph 58 % 0.00 in
22:59 37.2 °F 23.8 °F 29.93 in West 3.8 mph 11.0 mph 58 % 0.00 in
23:04 37.1 °F 23.7 °F 29.93 in NW 6.3 mph 11.5 mph 58 % 0.00 in
23:09 37.0 °F 23.6 °F 29.93 in WNW 6.6 mph 19.6 mph 58 % 0.00 in
23:14 37.0 °F 23.2 °F 29.93 in West 5.4 mph 10.4 mph 57 % 0.00 in
23:19 36.9 °F 23.5 °F 29.93 in WNW 5.2 mph 10.4 mph 58 % 0.00 in
23:24 36.9 °F 23.1 °F 29.93 in WSW 6.1 mph 12.7 mph 57 % 0.00 in
23:29 36.8 °F 23.0 °F 29.93 in SW 9.4 mph 17.0 mph 57 % 0.00 in
23:34 36.8 °F 23.4 °F 29.93 in WNW 6.6 mph 12.7 mph 58 % 0.00 in
23:39 36.7 °F 23.3 °F 29.93 in WSW 9.1 mph 13.8 mph 58 % 0.00 in
23:45 36.6 °F 23.2 °F 29.93 in West 6.0 mph 14.0 mph 58 % 0.00 in
23:50 36.5 °F 22.7 °F 29.93 in SW 6.5 mph 8.1 mph 57 % 0.00 in
23:55 36.5 °F 22.7 °F 29.93 in West 9.0 mph 14.0 mph 57 % 0.00 in
Crab Meadow Weather
Compliments of Weather Underground - 3 mb

Script developed by  Jim McMurry - jmcmurry@mwt.net Adapted for the template by  Wim van der Kuil - Leuven-Template.eu

Recycling: Americans throw away 25,000,000,000 Styrofoam coffee cups every year.